Nearby METAR Reports



KADS - Dallas/Addison, Texas, USA
Distance from station: SSW 10mi, 16km
Updated: Thu, 16-Sep-2021 10:47am CDT
Clear
Clear
 Wind from E
Wind: E 9 mph , 15 km/h, Gust: 17 mph , 28 km/h
Temperature: 82°F , 28°C
Heat Index: 84°F , 29°C
Dew Point: 64°F , 18°C
Humidity: 55%
Barometer: 29.97 inHg , 1014.9 hPa
Clouds: Clear
Visibility: 13 miles , 21 km
2021/09/16 15:47 KADS 161547Z 09008G15KT 13SM SKC 28/18 A2997
KTKI - Mckinney, Texas, USA
Distance from station: ENE 11mi, 18km
Updated: Thu, 16-Sep-2021 10:53am CDT
Clear
Clear
 Wind from ESE
Wind: ESE 9 mph , 15 km/h
Temperature: 82°F , 28°C
Heat Index: 84°F , 29°C
Dew Point: 66°F , 19°C
Humidity: 58%
Barometer: 29.97 inHg , 1014.9 hPa
Clouds: Clear
Visibility: 10 miles , 16 km
2021/09/16 15:53 KTKI 161553Z 12008KT 10SM CLR 28/19 A2997 RMK AO2 SLP143 T02780194
 
KDAL - Dallas/Love Fld, Texas, USA
Distance from station: SSW 18mi, 30km
Updated: Thu, 16-Sep-2021 10:53am CDT
Few Clouds
Few Clouds
 Wind from ESE
Wind: ESE 10 mph , 17 km/h
Temperature: 82°F , 28°C
Heat Index: 84°F , 29°C
Dew Point: 66°F , 19°C
Humidity: 58%
Barometer: 29.96 inHg , 1014.6 hPa
Clouds: Few Clouds
Visibility: 10 miles , 16 km
Cloud details: Few Clouds 3300 ft
Few Clouds 15000 ft
Few Clouds 30000 ft
2021/09/16 15:53 KDAL 161553Z 12009KT 10SM FEW033 FEW150 FEW300 28/19 A2996 RMK AO2 SLP136 T02780189
KDFW - Dallas/Ft Worth, Texas, USA
Distance from station: SW 21mi, 34km
Updated: Thu, 16-Sep-2021 10:53am CDT
Partly cloudy
Partly cloudy
 Wind from ENE
Wind: ENE 7 mph , 11 km/h
Temperature: 82°F , 28°C
Heat Index: 84°F , 29°C
Dew Point: 64°F , 18°C
Humidity: 55%
Barometer: 29.95 inHg , 1014.2 hPa
Clouds: Partly cloudy
Visibility: 10 miles , 16 km
Cloud details: Few Clouds 500 ft
Few Clouds 4000 ft
Partly cloudy 25000 ft
2021/09/16 15:53 KDFW 161553Z 07006KT 10SM FEW005 FEW040 SCT250 28/18 A2995 RMK AO2 SLP133 FU FEW005 W T02830183
 
KF46 - Rockwall, Texas, USA
Distance from station: ESE 22mi, 35km
Updated: Thu, 16-Sep-2021 10:55am CDT
Clear
Clear
 Wind from ENE
Wind: ENE 8 mph , 13 km/h, Gust: 16 mph , 26 km/h
Temperature: 82°F , 28°C
Heat Index: 84°F , 29°C
Dew Point: 66°F , 19°C
Humidity: 58%
Barometer: 29.97 inHg , 1014.9 hPa
Clouds: Clear
Visibility: 10 miles , 16 km
2021/09/16 15:55 KF46 161555Z AUTO 07007G14KT 10SM CLR 28/19 A2997 RMK AO2 T02750190
KDTO - Denton, Texas, USA
Distance from station: WNW 27mi, 43km
Updated: Thu, 16-Sep-2021 10:53am CDT
Clear
Clear
 Wind from E
Wind: E 7 mph , 11 km/h
Temperature: 82°F , 28°C
Heat Index: 85°F , 29°C
Dew Point: 68°F , 20°C
Humidity: 62%
Barometer: 29.97 inHg , 1014.9 hPa
Clouds: Clear
Visibility: 10 miles , 16 km
2021/09/16 15:53 KDTO 161553Z 10006KT 10SM CLR 28/20 A2997 RMK AO2 SLP142 T02830200
 
KHQZ - Mesquite, Texas, USA
Distance from station: SSE 28mi, 44km
Updated: Thu, 16-Sep-2021 10:50am CDT
Partly cloudy
Partly cloudy
 Wind from ENE
Wind: ENE 6 mph , 9 km/h
Temperature: 82°F , 28°C
Heat Index: 84°F , 29°C
Dew Point: 66°F , 19°C
Humidity: 58%
Barometer: 29.96 inHg , 1014.6 hPa
Clouds: Partly cloudy
Visibility: 10 miles , 16 km
Cloud details: Partly cloudy 2900 ft
2021/09/16 15:50 KHQZ 161550Z 06005KT 10SM SCT029 28/19 A2996
KRBD - Dallas/Redbird, Texas, USA
Distance from station: SSW 30mi, 48km
Updated: Thu, 16-Sep-2021 10:53am CDT
Clear
Clear
 Wind from ENE
Wind: ENE 8 mph , 13 km/h
Temperature: 81°F , 27°C
Heat Index: 83°F , 28°C
Dew Point: 64°F , 18°C
Humidity: 58%
Barometer: 29.96 inHg , 1014.6 hPa
Clouds: Clear
Visibility: 10 miles , 16 km
2021/09/16 15:53 KRBD 161553Z 06007KT 10SM CLR 27/18 A2996 RMK AO2 SLP136 T02720183
 
KGPM - Grand Prairie, Texas, USA
Distance from station: SSW 33mi, 53km
Updated: Thu, 16-Sep-2021 5:55am CDT
NOT Current
Clear
Clear
 Wind from calm
Wind: Calm
Temperature: 72°F , 22°C
Dew Point: 64°F , 18°C
Humidity: 78%
Barometer: 29.92 inHg , 1013.2 hPa
Clouds: Clear
Visibility: 10 miles , 16 km
2021/09/16 10:55 KGPM 161055Z AUTO 00000KT 10SM CLR 22/18 A2992 RMK AO2 T02150175
KAFW - Ft Worth/Allianc, Texas, USA
Distance from station: WSW 34mi, 55km
Updated: Thu, 16-Sep-2021 10:53am CDT
Few Clouds
Few Clouds
 Wind from ESE
Wind: ESE 8 mph , 13 km/h
Temperature: 82°F , 28°C
Heat Index: 84°F , 29°C
Dew Point: 66°F , 19°C
Humidity: 58%
Barometer: 29.97 inHg , 1014.9 hPa
Clouds: Few Clouds
Visibility: 10 miles , 16 km
Cloud details: Few Clouds 3500 ft
2021/09/16 15:53 KAFW 161553Z 11007KT 10SM FEW035 28/19 A2997 RMK AO2 SLP133 T02830189
 
KLNC - Lancaster, Texas, USA
Distance from station: S 36mi, 58km
Updated: Thu, 16-Sep-2021 10:55am CDT
Clear
Clear
 Wind from E
Wind: E 8 mph , 13 km/h
Temperature: 81°F , 27°C
Heat Index: 83°F , 28°C
Dew Point: 66°F , 19°C
Humidity: 62%
Barometer: 29.97 inHg , 1014.9 hPa
Clouds: Clear
Visibility: 10 miles , 16 km
2021/09/16 15:55 KLNC 161555Z AUTO 09007KT 050V110 10SM CLR 27/19 A2997 RMK AO2 T02740188
KGKY - Arlington, Texas, USA
Distance from station: SSW 36mi, 59km
Updated: Thu, 16-Sep-2021 10:53am CDT
Clear
Clear
 Wind from NE
Wind: NE 6 mph , 9 km/h
Temperature: 84°F , 29°C
Heat Index: 85°F , 29°C
Dew Point: 64°F , 18°C
Humidity: 51%
Barometer: 29.96 inHg , 1014.6 hPa
Clouds: Clear
Visibility: 10 miles , 16 km
2021/09/16 15:53 KGKY 161553Z 05005KT 10SM CLR 29/18 A2996 RMK AO2 SLP136 T02940183
 
KTRL - Terrell, Texas, USA
Distance from station: SE 39mi, 63km
Updated: Thu, 16-Sep-2021 10:53am CDT
Clear
Clear
 Wind from E
Wind: E 10 mph , 17 km/h
Temperature: 82°F , 28°C
Heat Index: 84°F , 29°C
Dew Point: 66°F , 19°C
Humidity: 58%
Barometer: 29.96 inHg , 1014.6 hPa
Clouds: Clear
Visibility: 10 miles , 16 km
2021/09/16 15:53 KTRL 161553Z AUTO 08009KT 10SM CLR 28/19 A2996 RMK AO2 SLP139 T02830194
KGVT - Greenville/Major, Texas, USA
Distance from station: E 40mi, 64km
Updated: Thu, 16-Sep-2021 10:55am CDT
Partly cloudy
Partly cloudy
 Wind from ENE
Wind: ENE 10 mph , 17 km/h
Temperature: 81°F , 27°C
Heat Index: 83°F , 28°C
Dew Point: 66°F , 19°C
Humidity: 62%
Barometer: 29.96 inHg , 1014.6 hPa
Clouds: Partly cloudy
Visibility: 10 miles , 16 km
Cloud details: Partly cloudy 2700 ft
2021/09/16 15:55 KGVT 161555Z AUTO 07009KT 10SM SCT027 27/19 A2996 RMK AO2 TSNO T02740193
 
KFTW - Fort Worth, Texas, USA
Distance from station: WSW 40mi, 65km
Updated: Thu, 16-Sep-2021 10:53am CDT
Clear
Clear
 Wind from E
Wind: E 7 mph , 11 km/h
Temperature: 82°F , 28°C
Heat Index: 84°F , 29°C
Dew Point: 66°F , 19°C
Humidity: 58%
Barometer: 29.96 inHg , 1014.6 hPa
Clouds: Clear
Visibility: 10 miles , 16 km
2021/09/16 15:53 KFTW 161553Z 08006KT 10SM CLR 28/19 A2996 RMK AO2 SLP137 T02780189
KGYI - Sherman/Denison, Texas, USA
Distance from station: N 43mi, 69km
Updated: Thu, 16-Sep-2021 10:50am CDT
Clear
Clear
 Wind from E
Wind: E 8 mph , 13 km/h
Temperature: 81°F , 27°C
Heat Index: 84°F , 29°C
Dew Point: 68°F , 20°C
Humidity: 66%
Barometer: 30.00 inHg , 1015.9 hPa
Clouds: Clear
Visibility: 10 miles , 16 km
2021/09/16 15:50 KGYI 161550Z 09007KT 10SM SKC 27/20 A3000
 
KNFW - Fort Worth Nas, Texas, USA
Distance from station: WSW 45mi, 73km
Updated: Thu, 16-Sep-2021 10:52am CDT
Few Clouds
Few Clouds
 Wind from ESE
Wind: ESE 7 mph , 11 km/h
Temperature: 84°F , 29°C
Heat Index: 86°F , 30°C
Dew Point: 66°F , 19°C
Humidity: 55%
Barometer: 29.97 inHg , 1014.9 hPa
Clouds: Few Clouds
Visibility: 10 miles , 16 km
Cloud details: Few Clouds 4400 ft
2021/09/16 15:52 KNFW 161552Z 11006KT 10SM FEW044 29/19 A2997 RMK AO2 SLP134 T02890194 $
KGLE - Gainesville, Texas, USA
Distance from station: NW 46mi, 74km
Updated: Thu, 16-Sep-2021 10:55am CDT
Clear
Clear
 Wind from SE
Wind: SE 6 mph , 9 km/h
Temperature: 81°F , 27°C
Heat Index: 83°F , 28°C
Dew Point: 66°F , 19°C
Humidity: 62%
Barometer: 30.00 inHg , 1015.9 hPa
Clouds: Clear
Visibility: 10 miles , 16 km
2021/09/16 15:55 KGLE 161555Z AUTO 13005KT 10SM CLR 27/19 A3000 RMK AO2 T02710190
 
KJWY - Midlothian/Wax, Texas, USA
Distance from station: SSW 46mi, 74km
Updated: Thu, 16-Sep-2021 10:55am CDT
Partly cloudy
Partly cloudy
 Wind from ENE
Wind: ENE 5 mph , 7 km/h
Temperature: 82°F , 28°C
Heat Index: 84°F , 29°C
Dew Point: 66°F , 19°C
Humidity: 58%
Barometer: 29.98 inHg , 1015.2 hPa
Clouds: Partly cloudy
Visibility: 10 miles , 16 km
Cloud details: Partly cloudy 12000 ft
2021/09/16 15:55 KJWY 161555Z AUTO 06004KT 10SM SCT120 28/19 A2998 RMK AO2 T02770191
KFWS - Fort Worth/88d, Texas, USA
Distance from station: SW 49mi, 79km
Updated: Thu, 16-Sep-2021 10:47am CDT
Partly cloudy
Partly cloudy
 Wind from E
Wind: E 8 mph , 13 km/h
Temperature: 84°F , 29°C
Heat Index: 86°F , 30°C
Dew Point: 66°F , 19°C
Humidity: 55%
Barometer: 29.98 inHg , 1015.2 hPa
Clouds: Partly cloudy
Visibility: 10 miles , 16 km
Cloud details: Partly cloudy 3100 ft
2021/09/16 15:47 KFWS 161547Z 09007KT 10SM SCT031 29/19 A2998